createdAt,value
2022-08-01T00:03:53.909Z,74.1
2022-08-01T00:08:53.934Z,73.9
2022-08-01T00:13:53.897Z,73.4
2022-08-01T00:18:53.914Z,73.3
2022-08-01T00:23:53.884Z,73
2022-08-01T00:28:53.875Z,72.2
2022-08-01T00:33:53.868Z,71.8
2022-08-01T00:38:53.853Z,71.1
2022-08-01T00:43:53.864Z,70.1
2022-08-01T00:48:53.920Z,69.3
2022-08-01T01:03:58.870Z,66.5
2022-08-01T01:08:53.815Z,65.8
2022-08-01T01:23:53.792Z,66
2022-08-01T01:28:53.797Z,66.3
2022-08-01T01:33:53.787Z,66.3
2022-08-01T01:38:53.785Z,66.3
2022-08-01T01:43:53.776Z,66.7
2022-08-01T01:48:53.812Z,66.8
2022-08-01T01:53:53.765Z,67.1
2022-08-01T01:58:53.754Z,67.4
2022-08-01T02:03:53.749Z,67.4
2022-08-01T02:08:53.738Z,67.4
2022-08-01T02:13:53.757Z,67.8
2022-08-01T02:18:53.726Z,67.7
2022-08-01T02:23:53.725Z,67.6
2022-08-01T02:28:53.727Z,67.1
2022-08-01T02:33:53.731Z,66.9
2022-08-01T02:38:53.710Z,66.9
2022-08-01T02:43:53.798Z,66.7
2022-08-01T02:48:53.730Z,67
2022-08-01T02:53:53.684Z,67.1
2022-08-01T02:58:53.690Z,67.4
2022-08-01T03:03:53.673Z,67.1
2022-08-01T03:08:53.687Z,66.7
2022-08-01T03:13:53.667Z,66.3
2022-08-01T03:18:53.648Z,66
2022-08-01T03:23:55.227Z,66.1
2022-08-01T03:28:53.650Z,66.1
2022-08-01T03:33:53.618Z,66.3
2022-08-01T03:38:53.635Z,66
2022-08-01T03:43:53.620Z,65.8
2022-08-01T03:48:53.651Z,65.5
2022-08-01T03:53:53.643Z,65.3
2022-08-01T03:58:53.599Z,65.4
2022-08-01T04:03:53.598Z,64.9
2022-08-01T04:08:53.568Z,66
2022-08-01T04:13:53.582Z,64.9
2022-08-01T04:18:53.594Z,64.8
2022-08-01T04:23:53.651Z,64
2022-08-01T04:28:53.561Z,64.6
2022-08-01T04:33:53.554Z,63.4
2022-08-01T04:38:53.563Z,62.6
2022-08-01T04:43:53.538Z,62.9
2022-08-01T04:48:53.569Z,62.5
2022-08-01T04:53:53.546Z,62.1
2022-08-01T04:58:53.524Z,61.8
2022-08-01T05:03:53.497Z,61.4
2022-08-01T05:08:53.514Z,61.3
2022-08-01T05:13:53.501Z,61.3
2022-08-01T05:18:53.490Z,61.2
2022-08-01T05:23:53.494Z,59.9
2022-08-01T05:28:53.476Z,61.1
2022-08-01T05:33:53.463Z,60.1
2022-08-01T05:38:53.474Z,60.3
2022-08-01T05:43:53.441Z,59.9
2022-08-01T05:48:53.515Z,59.7
2022-08-01T05:53:53.442Z,59.1
2022-08-01T05:58:53.434Z,59.2
2022-08-01T06:03:53.437Z,59.5
2022-08-01T06:08:53.429Z,59.3
2022-08-01T06:13:53.430Z,59.6
2022-08-01T06:18:56.604Z,60.3
2022-08-01T06:23:53.423Z,60.6
2022-08-01T06:28:53.393Z,59.5
2022-08-01T06:33:53.388Z,57.8
2022-08-01T06:38:53.381Z,56.7
2022-08-01T06:43:53.369Z,56
2022-08-01T06:53:53.366Z,54.3
2022-08-01T06:58:53.357Z,53.5
2022-08-01T07:03:54.981Z,54.1
2022-08-01T07:08:53.350Z,52.7
2022-08-01T07:13:53.331Z,52.7
2022-08-01T07:23:53.336Z,53.6
2022-08-01T07:28:53.320Z,53.2
2022-08-01T07:48:53.309Z,54.1
2022-08-01T07:58:53.274Z,54.6
2022-08-01T08:03:53.264Z,55
2022-08-01T08:08:53.245Z,54.6
2022-08-01T08:13:53.267Z,54.3
2022-08-01T08:18:53.242Z,55.3
2022-08-01T08:23:53.250Z,53.8
2022-08-01T08:28:53.241Z,54
2022-08-01T08:33:53.229Z,53.4
2022-08-01T08:38:53.217Z,53.7
2022-08-01T08:43:53.203Z,53.6
2022-08-01T08:48:53.256Z,53.9
2022-08-01T08:53:53.215Z,53.3
2022-08-01T08:58:53.197Z,52.8
2022-08-01T09:03:53.176Z,52.3
2022-08-01T09:08:53.184Z,51.2
2022-08-01T09:13:53.173Z,51.8
2022-08-01T09:18:53.753Z,51.4
2022-08-01T09:23:54.765Z,50.8
2022-08-01T09:28:53.151Z,50.8
2022-08-01T09:33:53.163Z,50.7
2022-08-01T09:38:53.158Z,50.9
2022-08-01T09:43:53.120Z,51.5
2022-08-01T09:48:53.163Z,49.6
2022-08-01T09:53:53.387Z,48.2
2022-08-01T09:58:58.708Z,48.3
2022-08-01T10:03:53.154Z,48.2
2022-08-01T10:08:53.100Z,47.9
2022-08-01T10:13:53.100Z,47.4
2022-08-01T10:18:53.086Z,47.8
2022-08-01T10:23:53.106Z,47.4
2022-08-01T10:28:53.071Z,46.8
2022-08-01T10:33:53.643Z,47.5
2022-08-01T10:38:53.097Z,47.5
2022-08-01T10:43:53.081Z,46.5
2022-08-01T10:48:53.129Z,47.3
2022-08-01T10:53:54.101Z,46
2022-08-01T10:58:53.042Z,44.8
2022-08-01T11:03:59.116Z,45.1
2022-08-01T11:08:53.045Z,45.1
2022-08-01T11:13:53.035Z,44.1
2022-08-01T11:18:53.026Z,44.6
2022-08-01T11:23:53.023Z,43.7
2022-08-01T11:29:11.126Z,43.9
2022-08-01T11:33:52.990Z,43.2
2022-08-01T11:38:52.976Z,44.5
2022-08-01T11:43:52.969Z,43.4
2022-08-01T11:48:53.032Z,43.7
2022-08-01T11:53:53.443Z,44
2022-08-01T11:58:53.076Z,43.4
2022-08-01T12:03:52.957Z,42.9
2022-08-01T12:08:52.933Z,42.4
2022-08-01T12:13:52.950Z,42.7
2022-08-01T12:18:52.934Z,40.8
2022-08-01T12:23:52.918Z,41.1
2022-08-01T12:28:52.922Z,40.7
2022-08-01T12:33:52.909Z,41.8
2022-08-01T12:38:52.897Z,41.8
2022-08-01T12:43:52.939Z,41.3
2022-08-01T12:48:52.916Z,41.5
2022-08-01T12:53:52.880Z,40.6
2022-08-01T12:58:52.887Z,40.3
2022-08-01T13:03:52.867Z,40.4
2022-08-01T13:08:52.872Z,39.2
2022-08-01T13:13:52.917Z,39.4
2022-08-01T13:18:52.876Z,38.8
2022-08-01T13:24:02.204Z,37.8
2022-08-01T13:28:52.845Z,38.1
2022-08-01T13:33:54.148Z,38.4
2022-08-01T13:38:52.841Z,38.9
2022-08-01T13:43:57.718Z,41.1
2022-08-01T13:48:52.875Z,42.3
2022-08-01T13:53:52.825Z,42.5
2022-08-01T13:58:52.798Z,43.3
2022-08-01T14:03:52.794Z,44
2022-08-01T14:08:52.799Z,44.5
2022-08-01T14:13:52.779Z,44.2
2022-08-01T14:18:52.781Z,44.1
2022-08-01T14:23:52.773Z,44.6
2022-08-01T14:28:52.783Z,44.6
2022-08-01T14:33:52.769Z,45.3
2022-08-01T14:38:52.748Z,45.6
2022-08-01T14:43:52.741Z,45.3
2022-08-01T14:48:52.828Z,45.7
2022-08-01T14:53:53.007Z,45.6
2022-08-01T14:58:52.728Z,46.8
2022-08-01T15:03:52.718Z,48.6
2022-08-01T15:08:52.719Z,50.1
2022-08-01T15:13:52.738Z,50.4
2022-08-01T15:23:52.697Z,51.3
2022-08-01T15:28:52.696Z,51.7
2022-08-01T15:33:52.675Z,51.3
2022-08-01T15:38:52.673Z,51.4
2022-08-01T15:43:55.823Z,51.5
2022-08-01T15:53:52.659Z,52.4
2022-08-01T16:03:52.659Z,51.5
2022-08-01T16:13:52.618Z,50.3
2022-08-01T16:18:53.805Z,51.9
2022-08-01T16:28:52.606Z,52.2
2022-08-01T16:33:54.370Z,52.6
2022-08-01T16:38:52.590Z,53.2
2022-08-01T16:43:54.141Z,55
2022-08-01T16:48:52.647Z,58.7
2022-08-01T16:53:52.577Z,61.2
2022-08-01T16:58:52.557Z,62
2022-08-01T17:03:54.791Z,62.7
2022-08-01T17:08:52.547Z,62.9
2022-08-01T17:13:52.537Z,62.9
2022-08-01T17:18:52.543Z,63.7
2022-08-01T17:23:52.527Z,63.7
2022-08-01T17:28:52.511Z,63.6
2022-08-01T17:33:54.896Z,64
2022-08-01T17:38:52.514Z,64.7
2022-08-01T17:43:52.499Z,65
2022-08-01T17:48:52.541Z,65.5
2022-08-01T17:53:55.811Z,66
2022-08-01T17:58:52.602Z,66.9
2022-08-01T18:03:52.483Z,67.4
2022-08-01T18:08:53.245Z,66.9
2022-08-01T18:13:52.459Z,66.6
2022-08-01T18:18:52.467Z,66.2
2022-08-01T18:23:52.644Z,66.1
2022-08-01T18:28:52.436Z,66.2
2022-08-01T18:33:52.430Z,66.6
2022-08-01T18:38:52.434Z,67
2022-08-01T18:43:52.410Z,67.5
2022-08-01T18:48:52.487Z,67.5
2022-08-01T18:53:52.396Z,67.7
2022-08-01T18:58:52.395Z,67
2022-08-01T19:03:52.419Z,66.8
2022-08-01T19:08:53.297Z,66
2022-08-01T19:13:52.395Z,65.9
2022-08-01T19:18:52.363Z,65.6
2022-08-01T19:23:52.366Z,65.7
2022-08-01T19:28:52.378Z,66
2022-08-01T19:33:52.338Z,66.2
2022-08-01T19:38:52.345Z,66.3
2022-08-01T19:43:52.355Z,66.5
2022-08-01T19:48:53.977Z,66.5
2022-08-01T19:53:55.098Z,66.7
2022-08-01T19:58:52.331Z,67
2022-08-01T20:03:52.323Z,67.1
2022-08-01T20:08:52.314Z,67.8
2022-08-01T20:13:52.312Z,68.2
2022-08-01T20:18:52.304Z,68.1
2022-08-01T20:23:52.283Z,68.4
2022-08-01T20:28:52.280Z,68.3
2022-08-01T20:33:52.276Z,69
2022-08-01T20:38:52.258Z,69
2022-08-01T20:43:52.251Z,69.4
2022-08-01T20:48:52.296Z,69.9
2022-08-01T20:58:55.357Z,71.2
2022-08-01T21:03:52.237Z,71.2
2022-08-01T21:13:52.230Z,71.2
2022-08-01T21:19:09.977Z,71.3
2022-08-01T21:23:52.190Z,72.2
2022-08-01T21:28:54.156Z,73.5
2022-08-01T21:38:52.180Z,77.5
2022-08-01T21:43:52.156Z,78.6
2022-08-01T21:48:52.191Z,80.4
2022-08-01T22:18:52.142Z,76.8
2022-08-01T22:23:52.119Z,77.8
2022-08-01T22:28:52.138Z,79.2
2022-08-01T22:33:52.109Z,79.7
2022-08-01T22:38:52.092Z,80.4
2022-08-01T22:43:52.094Z,81.7
2022-08-01T22:48:52.173Z,82.2
2022-08-01T22:53:52.082Z,82.4
2022-08-01T22:58:52.072Z,82.7
2022-08-01T23:03:52.067Z,83.1
2022-08-01T23:08:52.050Z,83
2022-08-01T23:13:52.064Z,82.8
2022-08-01T23:18:52.042Z,82.5
2022-08-01T23:23:52.056Z,81.5
2022-08-01T23:28:52.034Z,80.7
2022-08-01T23:33:52.041Z,80.2
2022-08-01T23:38:52.015Z,79
2022-08-01T23:43:52.577Z,78.5
2022-08-01T23:48:52.110Z,76.9
2022-08-01T23:53:52.004Z,76.5
2022-08-01T23:58:51.998Z,76.2
